Time;durP1;ratioP1;P1;durP2;ratioP2;P2;SDS_P1;SDS_P2;PMS_P1;PMS_P2;Temp;Humidity;BMP_temperature;BMP_pressure;BME280_temperature;BME280_humidity;BME280_pressure;Samples;Min_cycle;Max_cycle;Signal;HPM_P1;HPM_P2
2023/04/09 00:00:43;;;;;;;10.35;6.32;;;;;;;;;;5066708;28;20031;-70
2023/04/09 00:03:28;;;;;;;11.52;7.72;;;;;;;;;;5052448;28;20045;-70
2023/04/09 00:06:14;;;;;;;11.93;7.75;;;;;;;;;;5067257;28;20052;-76
2023/04/09 00:08:59;;;;;;;14.00;7.82;;;;;;;;;;5067209;28;20055;-78
2023/04/09 00:11:45;;;;;;;9.60;6.43;;;;;;;;;;5062651;28;20027;-77
2023/04/09 00:14:30;;;;;;;10.93;7.07;;;;;;;;;;5048261;28;20502;-76
2023/04/09 00:17:15;;;;;;;11.85;7.47;;;;;;;;;;5057234;28;20059;-79
2023/04/09 00:20:01;;;;;;;9.65;6.30;;;;;;;;;;5050027;28;20467;-79
2023/04/09 00:22:47;;;;;;;10.93;6.40;;;;;;;;;;5061958;28;20425;-77
2023/04/09 00:25:32;;;;;;;12.52;7.20;;;;;;;;;;5045734;28;20136;-75
2023/04/09 00:28:17;;;;;;;10.02;6.55;;;;;;;;;;5064801;28;20020;-77
2023/04/09 00:31:03;;;;;;;11.38;7.97;;;;;;;;;;5063342;28;20509;-77
2023/04/09 00:34:23;;;;;;;11.82;7.30;;;;;;;;;;5049369;28;20191;-76
2023/04/09 00:37:09;;;;;;;11.48;6.82;;;;;;;;;;5057572;28;20111;-76
2023/04/09 00:39:54;;;;;;;11.70;6.53;;;;;;;;;;5071257;28;20032;-75
2023/04/09 00:42:40;;;;;;;10.13;6.53;;;;;;;;;;5059549;28;20056;-72
2023/04/09 00:45:25;;;;;;;9.50;6.20;;;;;;;;;;5059677;28;20028;-71
2023/04/09 00:48:14;;;;;;;10.82;6.90;;;;;;;;;;5066909;28;20043;-69
2023/04/09 00:51:00;;;;;;;12.27;7.45;;;;;;;;;;5063050;28;20471;-69
2023/04/09 00:53:46;;;;;;;11.13;6.97;;;;;;;;;;5071025;28;20028;-71
2023/04/09 00:56:31;;;;;;;10.75;6.85;;;;;;;;;;5070881;28;20044;-70
2023/04/09 00:59:17;;;;;;;11.40;6.38;;;;;;;;;;5061200;28;20024;-72
2023/04/09 01:02:02;;;;;;;9.80;6.28;;;;;;;;;;5070481;28;20066;-74
2023/04/09 01:04:48;;;;;;;9.93;5.60;;;;;;;;;;5070821;28;20025;-76
2023/04/09 01:07:33;;;;;;;10.90;6.63;;;;;;;;;;5063221;28;20178;-75
2023/04/09 01:10:23;;;;;;;9.40;5.72;;;;;;;;;;5070711;28;20036;-75
2023/04/09 01:13:21;;;;;;;8.02;5.80;;;;;;;;;;5061982;28;20044;-75
2023/04/09 01:16:09;;;;;;;9.35;5.78;;;;;;;;;;5063892;28;20121;-77
2023/04/09 01:19:00;;;;;;;10.90;5.82;;;;;;;;;;5070439;28;20024;-71
2023/04/09 01:21:46;;;;;;;10.23;6.03;;;;;;;;;;5070357;28;20111;-73
2023/04/09 01:24:31;;;;;;;9.05;5.70;;;;;;;;;;5063443;28;20284;-72
2023/04/09 01:27:17;;;;;;;10.02;5.50;;;;;;;;;;5066221;28;20432;-72
2023/04/09 01:30:03;;;;;;;10.18;6.13;;;;;;;;;;5061016;28;20035;-74
2023/04/09 01:32:48;;;;;;;10.75;5.95;;;;;;;;;;5070264;28;20051;-73
2023/04/09 01:35:34;;;;;;;13.00;6.43;;;;;;;;;;5070220;28;20032;-70
2023/04/09 01:38:20;;;;;;;8.80;5.70;;;;;;;;;;5070264;28;20039;-68
2023/04/09 01:41:06;;;;;;;10.02;6.30;;;;;;;;;;5069500;28;20533;-69
2023/04/09 01:43:52;;;;;;;9.52;5.97;;;;;;;;;;5053640;28;20159;-69
2023/04/09 01:46:38;;;;;;;11.13;6.85;;;;;;;;;;5061186;28;20557;-70
2023/04/09 01:49:23;;;;;;;12.13;7.90;;;;;;;;;;5059697;28;20543;-70
2023/04/09 01:52:09;;;;;;;14.40;7.30;;;;;;;;;;5069723;28;20035;-68
2023/04/09 01:54:54;;;;;;;10.00;6.82;;;;;;;;;;5069905;28;20032;-68
2023/04/09 01:57:39;;;;;;;14.43;5.93;;;;;;;;;;5060025;28;20051;-73
2023/04/09 02:00:29;;;;;;;10.23;6.75;;;;;;;;;;5050034;28;20047;-73
2023/04/09 02:03:18;;;;;;;9.52;6.03;;;;;;;;;;5068764;28;20036;-72
2023/04/09 02:06:14;;;;;;;10.45;6.22;;;;;;;;;;5069483;28;20083;-71
2023/04/09 02:09:00;;;;;;;11.27;6.10;;;;;;;;;;5069417;28;20067;-71
2023/04/09 02:11:47;;;;;;;12.70;7.25;;;;;;;;;;5069444;28;20032;-71
2023/04/09 02:14:33;;;;;;;10.07;6.32;;;;;;;;;;5040145;28;20119;-75
2023/04/09 02:17:18;;;;;;;10.88;6.03;;;;;;;;;;5069799;28;20099;-74
2023/04/09 02:20:03;;;;;;;10.43;6.15;;;;;;;;;;5069212;28;20090;-74
2023/04/09 02:22:49;;;;;;;10.13;5.93;;;;;;;;;;5068098;28;20471;-74
2023/04/09 02:25:34;;;;;;;10.10;6.45;;;;;;;;;;5069293;28;20462;-76
2023/04/09 02:28:19;;;;;;;10.80;6.68;;;;;;;;;;5069419;28;20036;-74
2023/04/09 02:31:05;;;;;;;13.70;7.38;;;;;;;;;;5063791;28;20039;-74
2023/04/09 02:33:50;;;;;;;11.60;7.15;;;;;;;;;;5069225;28;20119;-70
2023/04/09 02:36:35;;;;;;;11.07;6.95;;;;;;;;;;5069215;28;20024;-70
2023/04/09 02:39:20;;;;;;;10.77;6.57;;;;;;;;;;5068003;28;20052;-70
2023/04/09 02:42:06;;;;;;;8.95;5.35;;;;;;;;;;5068822;28;20063;-69
2023/04/09 02:44:51;;;;;;;12.15;7.10;;;;;;;;;;5051697;28;20398;-71
2023/04/09 02:47:37;;;;;;;12.10;6.60;;;;;;;;;;5067247;28;20028;-70
2023/04/09 02:50:22;;;;;;;10.20;6.18;;;;;;;;;;5062997;28;20768;-71
2023/04/09 02:53:07;;;;;;;9.15;6.07;;;;;;;;;;5068495;28;20055;-75
2023/04/09 02:55:52;;;;;;;11.52;7.43;;;;;;;;;;5068761;28;20060;-70
2023/04/09 02:58:38;;;;;;;8.98;6.00;;;;;;;;;;5064212;28;20376;-72
2023/04/09 03:01:23;;;;;;;9.50;6.47;;;;;;;;;;5064640;28;20886;-71
2023/04/09 03:04:08;;;;;;;10.50;6.65;;;;;;;;;;5060619;28;20114;-71
2023/04/09 03:06:53;;;;;;;9.48;6.90;;;;;;;;;;5054333;28;20404;-71
2023/04/09 03:09:39;;;;;;;10.90;7.28;;;;;;;;;;5068310;28;20040;-74
2023/04/09 03:12:24;;;;;;;11.68;7.43;;;;;;;;;;5068278;28;20024;-71
2023/04/09 03:15:10;;;;;;;9.45;6.28;;;;;;;;;;5067579;28;20036;-70
2023/04/09 03:17:55;;;;;;;10.57;6.53;;;;;;;;;;5060567;28;20033;-72
2023/04/09 03:20:40;;;;;;;10.85;6.80;;;;;;;;;;5053928;28;20060;-70
2023/04/09 03:23:25;;;;;;;10.35;7.70;;;;;;;;;;5060132;28;20506;-71
2023/04/09 03:26:11;;;;;;;11.40;6.80;;;;;;;;;;5068238;28;20036;-71
2023/04/09 03:28:56;;;;;;;9.48;7.25;;;;;;;;;;5067817;28;20369;-73
2023/04/09 03:31:41;;;;;;;11.52;7.28;;;;;;;;;;5067821;28;20024;-72
2023/04/09 03:34:26;;;;;;;9.90;7.07;;;;;;;;;;5067855;28;20027;-70
2023/04/09 03:37:11;;;;;;;12.52;6.03;;;;;;;;;;5067238;28;20054;-75
2023/04/09 03:39:57;;;;;;;12.43;6.68;;;;;;;;;;5036371;28;20029;-72
2023/04/09 03:42:42;;;;;;;9.43;6.03;;;;;;;;;;5064488;28;20498;-72
2023/04/09 03:45:28;;;;;;;9.35;5.95;;;;;;;;;;5067412;28;20511;-73
2023/04/09 03:48:13;;;;;;;9.13;6.22;;;;;;;;;;5068200;28;20043;-70
2023/04/09 03:50:58;;;;;;;9.43;6.50;;;;;;;;;;5062684;28;20032;-72
2023/04/09 03:53:44;;;;;;;9.90;6.95;;;;;;;;;;5067697;28;20043;-73
2023/04/09 03:56:29;;;;;;;9.02;5.72;;;;;;;;;;5045057;28;20387;-73
2023/04/09 03:59:14;;;;;;;13.02;7.78;;;;;;;;;;5067628;28;20025;-72
2023/04/09 04:02:00;;;;;;;11.75;7.68;;;;;;;;;;5057487;28;20020;-72
2023/04/09 04:04:45;;;;;;;10.60;7.35;;;;;;;;;;5067669;28;20046;-81
2023/04/09 04:07:31;;;;;;;10.50;6.50;;;;;;;;;;5066845;28;20454;-69
2023/04/09 04:10:16;;;;;;;10.60;6.72;;;;;;;;;;5068073;28;20020;-73
2023/04/09 04:13:02;;;;;;;10.85;6.72;;;;;;;;;;5040090;28;20029;-74
2023/04/09 04:15:47;;;;;;;12.75;6.70;;;;;;;;;;5067365;28;20021;-74
2023/04/09 04:18:32;;;;;;;9.93;6.25;;;;;;;;;;5065889;28;20411;-73
2023/04/09 04:21:17;;;;;;;11.35;7.22;;;;;;;;;;5059106;28;20029;-72
2023/04/09 04:24:03;;;;;;;10.77;7.07;;;;;;;;;;5064240;28;20033;-75
2023/04/09 04:26:48;;;;;;;12.23;7.65;;;;;;;;;;5067510;28;20078;-71
2023/04/09 04:29:33;;;;;;;11.35;6.60;;;;;;;;;;5066011;28;20032;-73
2023/04/09 04:32:18;;;;;;;10.95;7.45;;;;;;;;;;5066084;28;20479;-71
2023/04/09 04:35:04;;;;;;;9.93;6.90;;;;;;;;;;5067497;28;20029;-72
2023/04/09 04:37:52;;;;;;;10.05;6.50;;;;;;;;;;5067431;28;20028;-71
2023/04/09 04:40:37;;;;;;;10.02;6.63;;;;;;;;;;5067475;28;20025;-72
2023/04/09 04:43:22;;;;;;;10.23;6.75;;;;;;;;;;5066877;28;20032;-73
2023/04/09 04:46:08;;;;;;;10.00;6.68;;;;;;;;;;5054828;28;20028;-79
2023/04/09 04:48:53;;;;;;;12.07;8.18;;;;;;;;;;5067720;28;20098;-79
2023/04/09 04:51:38;;;;;;;10.23;6.78;;;;;;;;;;5067452;28;20024;-78
2023/04/09 04:54:23;;;;;;;11.98;7.13;;;;;;;;;;5067363;28;20312;-80
2023/04/09 04:57:08;;;;;;;12.20;7.35;;;;;;;;;;5067334;28;20028;-80
2023/04/09 04:59:54;;;;;;;10.75;7.07;;;;;;;;;;5049519;28;20113;-73
2023/04/09 05:02:39;;;;;;;12.18;8.73;;;;;;;;;;5056371;28;20436;-71
2023/04/09 05:05:24;;;;;;;11.45;7.70;;;;;;;;;;5067144;28;20040;-72
2023/04/09 05:08:09;;;;;;;12.35;8.10;;;;;;;;;;5066920;28;20095;-71
2023/04/09 05:10:55;;;;;;;11.02;7.28;;;;;;;;;;5066964;28;20035;-72
2023/04/09 05:13:40;;;;;;;10.80;7.22;;;;;;;;;;5067152;28;20111;-71
2023/04/09 05:16:25;;;;;;;11.77;6.75;;;;;;;;;;5056571;28;20034;-70
2023/04/09 05:19:11;;;;;;;11.45;7.18;;;;;;;;;;5065193;28;20016;-80
2023/04/09 05:21:56;;;;;;;10.75;7.32;;;;;;;;;;5047009;28;20448;-71
2023/04/09 05:24:41;;;;;;;11.20;6.70;;;;;;;;;;5068657;28;20064;-69
2023/04/09 05:27:27;;;;;;;11.68;7.00;;;;;;;;;;5070307;28;20043;-71
2023/04/09 05:30:12;;;;;;;11.60;7.93;;;;;;;;;;5067010;28;20416;-71
2023/04/09 05:32:57;;;;;;;11.75;7.25;;;;;;;;;;5051059;28;20035;-71
2023/04/09 05:35:43;;;;;;;12.50;7.85;;;;;;;;;;5065417;28;20505;-71
2023/04/09 05:38:28;;;;;;;11.40;7.60;;;;;;;;;;5070714;28;20021;-75
2023/04/09 05:41:13;;;;;;;12.63;7.57;;;;;;;;;;5070132;28;20036;-73
2023/04/09 05:43:58;;;;;;;12.98;8.73;;;;;;;;;;5070089;28;20036;-72
2023/04/09 05:46:44;;;;;;;11.70;7.50;;;;;;;;;;5068254;28;20689;-72
2023/04/09 05:49:29;;;;;;;12.70;8.02;;;;;;;;;;5064628;28;20171;-73
2023/04/09 05:52:15;;;;;;;10.98;7.43;;;;;;;;;;5070342;28;20048;-73
2023/04/09 05:55:00;;;;;;;11.95;8.00;;;;;;;;;;5070122;28;20067;-72
2023/04/09 05:57:46;;;;;;;12.68;7.50;;;;;;;;;;5069874;28;20028;-76
2023/04/09 06:00:31;;;;;;;11.65;7.43;;;;;;;;;;5063771;28;20535;-75
2023/04/09 06:03:16;;;;;;;11.55;6.68;;;;;;;;;;5064946;28;20028;-75
2023/04/09 06:06:01;;;;;;;10.68;6.97;;;;;;;;;;5068603;28;20047;-77
2023/04/09 06:08:47;;;;;;;11.90;8.07;;;;;;;;;;5069770;28;20399;-76
2023/04/09 06:11:33;;;;;;;11.15;7.53;;;;;;;;;;5066836;28;20507;-75
2023/04/09 06:14:18;;;;;;;12.32;7.75;;;;;;;;;;5068403;28;20633;-77
2023/04/09 06:17:03;;;;;;;12.20;7.93;;;;;;;;;;5068109;28;20024;-73
2023/04/09 06:19:48;;;;;;;12.13;7.72;;;;;;;;;;5067582;28;20025;-71
2023/04/09 06:22:33;;;;;;;9.73;6.75;;;;;;;;;;5055066;28;20032;-75
2023/04/09 06:25:19;;;;;;;11.13;7.07;;;;;;;;;;5069624;28;20041;-73
2023/04/09 06:28:04;;;;;;;11.45;7.53;;;;;;;;;;5069218;28;20471;-73
2023/04/09 06:30:49;;;;;;;11.65;7.38;;;;;;;;;;5069205;28;20040;-71
2023/04/09 06:33:34;;;;;;;11.85;7.32;;;;;;;;;;5069428;28;20403;-71
2023/04/09 06:36:20;;;;;;;11.90;8.38;;;;;;;;;;5066389;28;20390;-75
2023/04/09 06:39:06;;;;;;;11.63;8.23;;;;;;;;;;5069312;28;20077;-76
2023/04/09 06:41:51;;;;;;;13.02;8.43;;;;;;;;;;5069166;28;20557;-77
2023/04/09 06:44:36;;;;;;;12.30;8.45;;;;;;;;;;5068835;28;20545;-76
2023/04/09 06:47:21;;;;;;;13.70;9.90;;;;;;;;;;5069304;28;20094;-75
2023/04/09 06:50:07;;;;;;;12.98;9.25;;;;;;;;;;5063651;28;20025;-71
2023/04/09 06:52:52;;;;;;;10.68;7.85;;;;;;;;;;5044653;28;20108;-78
2023/04/09 06:55:38;;;;;;;11.82;8.77;;;;;;;;;;5069258;28;20020;-76
2023/04/09 06:58:24;;;;;;;11.77;8.18;;;;;;;;;;5068349;28;20115;-76
2023/04/09 07:01:09;;;;;;;12.80;8.43;;;;;;;;;;5058870;28;20044;-75
2023/04/09 07:03:54;;;;;;;12.23;8.68;;;;;;;;;;5068587;28;20046;-77
2023/04/09 07:06:40;;;;;;;9.95;8.20;;;;;;;;;;5068118;28;20052;-76
2023/04/09 07:09:25;;;;;;;10.73;8.07;;;;;;;;;;5063612;28;20443;-77
2023/04/09 07:12:10;;;;;;;11.18;7.65;;;;;;;;;;5058292;28;20111;-81
2023/04/09 07:14:56;;;;;;;10.90;8.32;;;;;;;;;;5069842;28;20495;-81
2023/04/09 07:17:42;;;;;;;11.00;8.10;;;;;;;;;;5061231;28;20108;-80
2023/04/09 07:20:27;;;;;;;12.70;8.43;;;;;;;;;;5068352;28;20208;-82
2023/04/09 07:23:12;;;;;;;11.25;8.93;;;;;;;;;;5051006;28;20488;-81
2023/04/09 07:26:00;;;;;;;9.65;7.50;;;;;;;;;;5063348;28;20094;-83
2023/04/09 07:28:45;;;;;;;10.48;7.38;;;;;;;;;;5062799;28;20040;-78
2023/04/09 07:31:31;;;;;;;9.95;7.65;;;;;;;;;;5067650;28;20471;-70
2023/04/09 07:34:16;;;;;;;10.55;7.35;;;;;;;;;;5068146;28;20025;-70
2023/04/09 07:37:02;;;;;;;10.77;7.05;;;;;;;;;;5068089;28;20028;-70
2023/04/09 07:39:48;;;;;;;9.05;6.70;;;;;;;;;;5068075;28;20032;-70
2023/04/09 07:42:35;;;;;;;7.88;5.95;;;;;;;;;;5065967;28;20036;-70
2023/04/09 07:45:20;;;;;;;9.05;6.05;;;;;;;;;;5067962;28;20075;-76
2023/04/09 07:48:08;;;;;;;7.47;5.32;;;;;;;;;;5067692;28;20047;-72
2023/04/09 07:50:53;;;;;;;9.25;5.45;;;;;;;;;;5062243;28;20029;-71
2023/04/09 07:53:38;;;;;;;7.53;5.68;;;;;;;;;;5067562;28;20475;-71
2023/04/09 07:56:23;;;;;;;7.65;5.78;;;;;;;;;;5067753;28;20070;-71
2023/04/09 07:59:09;;;;;;;7.25;5.35;;;;;;;;;;5063998;28;20475;-71
2023/04/09 08:01:55;;;;;;;5.85;3.95;;;;;;;;;;5064995;28;20418;-72
2023/04/09 08:04:40;;;;;;;5.30;4.28;;;;;;;;;;5067592;28;20119;-73
2023/04/09 08:07:25;;;;;;;5.53;4.40;;;;;;;;;;5066672;28;20319;-73
2023/04/09 08:10:13;;;;;;;7.40;4.72;;;;;;;;;;5066550;28;20052;-71
2023/04/09 08:12:59;;;;;;;7.53;5.47;;;;;;;;;;5065670;28;20036;-72
2023/04/09 08:15:44;;;;;;;9.70;7.43;;;;;;;;;;5049973;28;20086;-73
2023/04/09 08:18:30;;;;;;;8.20;6.22;;;;;;;;;;5066786;28;20020;-71
2023/04/09 08:21:15;;;;;;;7.55;5.85;;;;;;;;;;5058452;28;20029;-73
2023/04/09 08:24:03;;;;;;;9.15;6.75;;;;;;;;;;5063595;28;20043;-73
2023/04/09 08:26:48;;;;;;;8.82;6.03;;;;;;;;;;5067276;28;20119;-77
2023/04/09 08:29:33;;;;;;;8.43;6.40;;;;;;;;;;5072244;28;20025;-77
2023/04/09 08:32:19;;;;;;;8.07;5.82;;;;;;;;;;5051716;28;20121;-76
2023/04/09 08:35:05;;;;;;;8.13;5.22;;;;;;;;;;5066683;28;20036;-75
2023/04/09 08:37:50;;;;;;;7.28;5.45;;;;;;;;;;5066739;28;20438;-76
2023/04/09 08:40:35;;;;;;;5.50;4.75;;;;;;;;;;5067132;28;20033;-79
2023/04/09 08:43:21;;;;;;;8.23;5.45;;;;;;;;;;5066491;28;20115;-74
2023/04/09 08:46:09;;;;;;;7.25;5.22;;;;;;;;;;5066528;28;20104;-73
2023/04/09 08:48:55;;;;;;;8.60;5.55;;;;;;;;;;5062409;28;20029;-75
2023/04/09 08:51:44;;;;;;;7.15;5.32;;;;;;;;;;5066635;28;20029;-75
2023/04/09 08:54:30;;;;;;;6.78;5.00;;;;;;;;;;5066460;28;20368;-74
2023/04/09 08:57:16;;;;;;;5.38;4.00;;;;;;;;;;5066420;28;20575;-74
2023/04/09 09:00:02;;;;;;;17.10;5.18;;;;;;;;;;5069831;28;20052;-76
2023/04/09 09:03:01;;;;;;;6.40;5.00;;;;;;;;;;5056075;28;20047;-70
2023/04/09 09:05:46;;;;;;;6.40;4.80;;;;;;;;;;5028650;28;1118714;-73
2023/04/09 09:08:31;;;;;;;7.32;5.13;;;;;;;;;;5069992;28;20372;-73
2023/04/09 09:11:27;;;;;;;6.75;4.90;;;;;;;;;;5070990;28;20027;-73
2023/04/09 09:14:13;;;;;;;6.82;5.43;;;;;;;;;;5071159;28;20115;-73
2023/04/09 09:17:06;;;;;;;7.22;5.47;;;;;;;;;;5069801;28;20054;-75
2023/04/09 09:19:52;;;;;;;7.22;4.85;;;;;;;;;;5071240;28;20107;-79
2023/04/09 09:23:07;;;;;;;6.55;5.15;;;;;;;;;;5063454;28;20036;-75
2023/04/09 09:25:52;;;;;;;7.88;5.60;;;;;;;;;;5062169;28;20059;-77
2023/04/09 09:28:38;;;;;;;6.55;5.25;;;;;;;;;;5068101;28;20048;-76
2023/04/09 09:31:23;;;;;;;7.70;5.60;;;;;;;;;;5047356;28;20024;-78
2023/04/09 09:34:09;;;;;;;8.13;6.28;;;;;;;;;;5050200;28;20031;-78
2023/04/09 09:36:54;;;;;;;7.28;5.85;;;;;;;;;;5069705;28;20048;-76
2023/04/09 09:39:43;;;;;;;7.15;5.55;;;;;;;;;;5065699;28;20041;-72
2023/04/09 09:42:29;;;;;;;5.90;4.43;;;;;;;;;;5065204;28;20032;-74
2023/04/09 09:45:18;;;;;;;6.10;4.75;;;;;;;;;;5070349;28;20050;-75
2023/04/09 09:48:03;;;;;;;;;;;;;;;;;;5070561;28;20468;-76
2023/04/09 09:50:49;;;;;;;6.10;4.93;;;;;;;;;;5064806;28;19935;-76
2023/04/09 09:53:38;;;;;;;7.43;4.75;;;;;;;;;;5070363;28;20058;-74
2023/04/09 09:56:31;;;;;;;5.78;4.72;;;;;;;;;;5068775;28;20013;-74
2023/04/09 09:59:22;;;;;;;5.22;4.20;;;;;;;;;;5056092;28;20040;-74
2023/04/09 10:02:13;;;;;;;3.85;3.15;;;;;;;;;;5057839;28;20494;-74
2023/04/09 10:05:03;;;;;;;4.60;3.40;;;;;;;;;;5069564;28;20048;-75
2023/04/09 10:07:49;;;;;;;5.30;3.92;;;;;;;;;;5068718;28;20063;-74
2023/04/09 10:10:35;;;;;;;4.75;3.78;;;;;;;;;;5069044;28;20032;-75
2023/04/09 10:13:25;;;;;;;4.43;3.30;;;;;;;;;;5063823;28;20074;-73
2023/04/09 10:16:11;;;;;;;3.95;3.55;;;;;;;;;;5070286;28;20123;-74
2023/04/09 10:18:57;;;;;;;4.68;4.00;;;;;;;;;;5066654;28;20455;-76
2023/04/09 10:21:52;;;;;;;4.40;3.80;;;;;;;;;;5056760;28;20525;-76
2023/04/09 10:24:38;;;;;;;5.22;3.75;;;;;;;;;;5056760;28;20040;-76
2023/04/09 10:27:25;;;;;;;4.40;3.10;;;;;;;;;;5069254;28;20028;-76
2023/04/09 10:30:30;;;;;;;4.15;3.22;;;;;;;;;;5067407;28;20467;-76
2023/04/09 10:33:20;;;;;;;5.00;3.78;;;;;;;;;;5069195;28;20040;-70
2023/04/09 10:36:09;;;;;;;5.53;4.30;;;;;;;;;;5069461;28;20107;-75
2023/04/09 10:38:55;;;;;;;4.20;3.80;;;;;;;;;;5069582;28;20024;-75
2023/04/09 10:41:41;;;;;;;4.45;3.42;;;;;;;;;;5069118;28;20024;-73
2023/04/09 10:44:27;;;;;;;4.35;3.78;;;;;;;;;;5068963;28;20169;-74
2023/04/09 10:47:29;;;;;;;4.03;3.55;;;;;;;;;;5059991;28;20059;-74
2023/04/09 10:50:19;;;;;;;5.05;3.97;;;;;;;;;;5063742;28;20033;-72
2023/04/09 10:53:05;;;;;;;6.25;4.55;;;;;;;;;;5068842;28;20023;-76
2023/04/09 10:55:52;;;;;;;5.50;4.22;;;;;;;;;;5069493;28;20021;-78
2023/04/09 10:58:37;;;;;;;6.05;4.53;;;;;;;;;;5068815;28;20029;-79
2023/04/09 11:01:23;;;;;;;3.75;3.17;;;;;;;;;;5058775;28;20554;-76
2023/04/09 11:04:15;;;;;;;3.78;3.13;;;;;;;;;;5067017;28;20068;-75
2023/04/09 11:07:02;;;;;;;5.57;3.72;;;;;;;;;;5055592;28;20048;-75
2023/04/09 11:09:47;;;;;;;6.25;4.18;;;;;;;;;;5068492;28;20029;-74
2023/04/09 11:12:32;;;;;;;6.57;5.00;;;;;;;;;;5068885;28;20025;-71
2023/04/09 11:15:18;;;;;;;5.07;3.95;;;;;;;;;;5068421;28;20056;-70
2023/04/09 11:18:05;;;;;;;5.90;4.35;;;;;;;;;;5068680;28;20478;-72
2023/04/09 11:20:58;;;;;;;5.47;4.03;;;;;;;;;;5052614;28;20381;-69
2023/04/09 11:23:50;;;;;;;6.45;4.40;;;;;;;;;;5062607;28;20076;-71
2023/04/09 11:26:35;;;;;;;6.55;4.50;;;;;;;;;;5048674;28;20033;-82
2023/04/09 11:29:21;;;;;;;6.35;4.20;;;;;;;;;;5066857;28;20032;-75
2023/04/09 11:32:06;;;;;;;5.75;4.75;;;;;;;;;;5068053;28;20035;-74
2023/04/09 11:34:52;;;;;;;8.98;4.65;;;;;;;;;;5068270;28;20062;-76
2023/04/09 11:37:37;;;;;;;5.30;4.22;;;;;;;;;;5068233;28;20022;-74
2023/04/09 11:40:24;;;;;;;6.50;4.45;;;;;;;;;;5068083;28;20028;-78
2023/04/09 11:43:09;;;;;;;7.72;5.03;;;;;;;;;;5068096;28;20116;-74
2023/04/09 11:45:55;;;;;;;5.70;4.53;;;;;;;;;;5062415;28;20644;-70
2023/04/09 11:48:40;;;;;;;6.47;4.60;;;;;;;;;;5065925;28;20501;-73
2023/04/09 11:51:26;;;;;;;9.82;4.88;;;;;;;;;;5064517;28;20039;-74
2023/04/09 11:54:11;;;;;;;7.68;4.90;;;;;;;;;;5068023;28;20425;-74
2023/04/09 11:57:00;;;;;;;6.75;5.00;;;;;;;;;;5047877;28;20325;-76
2023/04/09 11:59:45;;;;;;;6.18;4.40;;;;;;;;;;5064954;28;20107;-75
2023/04/09 12:02:31;;;;;;;7.28;4.65;;;;;;;;;;5046127;28;20202;-73
2023/04/09 12:05:20;;;;;;;6.22;4.35;;;;;;;;;;5067510;28;20094;-75
2023/04/09 12:08:07;;;;;;;7.80;4.88;;;;;;;;;;5067579;28;20048;-77
2023/04/09 12:10:52;;;;;;;5.85;4.07;;;;;;;;;;5064887;28;20028;-77
2023/04/09 12:13:41;;;;;;;14.00;6.30;;;;;;;;;;5067660;28;20021;-76
2023/04/09 12:16:29;;;;;;;6.30;4.60;;;;;;;;;;5066299;28;20075;-76
2023/04/09 12:19:15;;;;;;;5.45;4.18;;;;;;;;;;5067690;28;20090;-76
2023/04/09 12:22:00;;;;;;;6.10;4.15;;;;;;;;;;5053598;28;20083;-74
2023/04/09 12:24:46;;;;;;;6.28;4.18;;;;;;;;;;5062386;28;20040;-75
2023/04/09 12:27:31;;;;;;;4.38;3.60;;;;;;;;;;5065668;28;20035;-76
2023/04/09 12:30:16;;;;;;;4.88;3.80;;;;;;;;;;5067021;28;20032;-76
2023/04/09 12:33:02;;;;;;;6.68;4.57;;;;;;;;;;5066770;28;20503;-75
2023/04/09 12:35:47;;;;;;;6.88;4.07;;;;;;;;;;5067499;28;20391;-76
2023/04/09 12:38:32;;;;;;;6.88;4.65;;;;;;;;;;5067390;28;20032;-77
2023/04/09 12:41:17;;;;;;;8.20;4.30;;;;;;;;;;5062557;28;20021;-70
2023/04/09 12:44:03;;;;;;;5.18;4.05;;;;;;;;;;5060821;28;20533;-73
2023/04/09 12:46:49;;;;;;;6.47;4.43;;;;;;;;;;5037681;28;20075;-73
2023/04/09 12:49:34;;;;;;;7.00;4.80;;;;;;;;;;5064712;28;20144;-74
2023/04/09 12:52:21;;;;;;;6.55;4.75;;;;;;;;;;5067416;28;20039;-73
2023/04/09 12:55:06;;;;;;;6.00;4.10;;;;;;;;;;5047005;28;20071;-74
2023/04/09 12:57:52;;;;;;;7.95;4.47;;;;;;;;;;5064025;28;20060;-73
2023/04/09 13:00:37;;;;;;;6.03;4.15;;;;;;;;;;5050223;28;20419;-75
2023/04/09 13:03:22;;;;;;;7.20;4.82;;;;;;;;;;5066023;28;20052;-74
2023/04/09 13:06:08;;;;;;;7.40;4.63;;;;;;;;;;5066739;28;20041;-74
2023/04/09 13:08:53;;;;;;;6.03;3.97;;;;;;;;;;5067144;28;20097;-74
2023/04/09 13:11:39;;;;;;;6.32;4.53;;;;;;;;;;5067036;28;20028;-75
2023/04/09 13:14:24;;;;;;;5.38;3.90;;;;;;;;;;5047349;28;20119;-74
2023/04/09 13:17:10;;;;;;;6.40;4.88;;;;;;;;;;5052599;28;20116;-76
2023/04/09 13:19:55;;;;;;;6.82;4.05;;;;;;;;;;5066394;28;20086;-70
2023/04/09 13:22:40;;;;;;;5.60;3.83;;;;;;;;;;5066773;28;20032;-69
2023/04/09 13:25:25;;;;;;;5.32;4.13;;;;;;;;;;5066590;28;20032;-70
2023/04/09 13:28:11;;;;;;;4.80;3.63;;;;;;;;;;5066807;28;20025;-69
2023/04/09 13:30:56;;;;;;;6.30;4.28;;;;;;;;;;5066269;28;20447;-69
2023/04/09 13:33:41;;;;;;;4.90;3.15;;;;;;;;;;5064430;28;20032;-69
2023/04/09 13:36:26;;;;;;;5.95;4.00;;;;;;;;;;5054052;28;20024;-75
2023/04/09 13:39:12;;;;;;;7.43;3.88;;;;;;;;;;5066443;28;20383;-73
2023/04/09 13:41:57;;;;;;;6.50;4.32;;;;;;;;;;5061342;28;20037;-74
2023/04/09 13:44:44;;;;;;;7.50;4.20;;;;;;;;;;5064753;28;20101;-74
2023/04/09 13:47:29;;;;;;;7.25;4.60;;;;;;;;;;5064541;28;20059;-76
2023/04/09 13:50:14;;;;;;;6.78;4.70;;;;;;;;;;5064491;28;20379;-75
2023/04/09 13:53:02;;;;;;;8.13;5.10;;;;;;;;;;5070138;28;20036;-75
2023/04/09 13:55:47;;;;;;;4.68;3.70;;;;;;;;;;5069642;28;20082;-72
2023/04/09 13:58:32;;;;;;;5.93;4.03;;;;;;;;;;5062080;28;20024;-76
2023/04/09 14:01:18;;;;;;;5.38;3.80;;;;;;;;;;5059141;28;20422;-77
2023/04/09 14:04:03;;;;;;;5.68;3.90;;;;;;;;;;5049259;28;20049;-74
2023/04/09 14:06:48;;;;;;;5.88;4.28;;;;;;;;;;5068150;28;20088;-75
2023/04/09 14:09:33;;;;;;;4.78;3.50;;;;;;;;;;5066648;28;20025;-75
2023/04/09 14:12:19;;;;;;;5.72;3.97;;;;;;;;;;5055524;28;20031;-72
2023/04/09 14:15:04;;;;;;;5.50;3.88;;;;;;;;;;5063929;28;20032;-74
2023/04/09 14:17:50;;;;;;;5.05;3.70;;;;;;;;;;5061646;28;20497;-74
2023/04/09 14:20:35;;;;;;;5.95;3.72;;;;;;;;;;5049724;28;20388;-73
2023/04/09 14:23:21;;;;;;;6.13;4.18;;;;;;;;;;5060689;28;20070;-72
2023/04/09 14:26:06;;;;;;;5.63;3.90;;;;;;;;;;5069334;28;20022;-75
2023/04/09 14:28:51;;;;;;;6.30;4.18;;;;;;;;;;5069634;28;20042;-75
2023/04/09 14:31:36;;;;;;;6.18;3.90;;;;;;;;;;5069284;28;20028;-75
2023/04/09 14:34:21;;;;;;;6.15;4.13;;;;;;;;;;5068012;28;20024;-75
2023/04/09 14:37:07;;;;;;;6.15;4.13;;;;;;;;;;5069424;28;20024;-75
2023/04/09 14:39:52;;;;;;;6.15;4.30;;;;;;;;;;5069016;28;20494;-74
2023/04/09 14:42:38;;;;;;;5.00;3.90;;;;;;;;;;5068721;28;20476;-75
2023/04/09 14:45:23;;;;;;;5.20;3.53;;;;;;;;;;5068982;28;20024;-75
2023/04/09 14:48:08;;;;;;;6.55;4.18;;;;;;;;;;5063607;28;20021;-75
2023/04/09 14:50:54;;;;;;;6.18;3.80;;;;;;;;;;5068822;28;20036;-74
2023/04/09 14:53:39;;;;;;;5.32;3.72;;;;;;;;;;5068851;28;20486;-76
2023/04/09 14:56:24;;;;;;;6.47;4.20;;;;;;;;;;5067777;28;20029;-75
2023/04/09 14:59:09;;;;;;;6.82;4.55;;;;;;;;;;5068590;28;20067;-76
2023/04/09 15:01:55;;;;;;;5.88;4.20;;;;;;;;;;5058836;28;20068;-79
2023/04/09 15:04:40;;;;;;;5.85;4.07;;;;;;;;;;5059820;28;20045;-77
2023/04/09 15:07:26;;;;;;;6.95;4.65;;;;;;;;;;5068739;28;20052;-77
2023/04/09 15:10:11;;;;;;;7.38;4.70;;;;;;;;;;5072070;28;20032;-74
2023/04/09 15:12:56;;;;;;;7.88;4.78;;;;;;;;;;5068652;28;20028;-75
2023/04/09 15:15:43;;;;;;;5.65;3.70;;;;;;;;;;5063780;28;20440;-75
2023/04/09 15:18:28;;;;;;;7.10;4.53;;;;;;;;;;5066025;28;20025;-75
2023/04/09 15:21:14;;;;;;;5.80;4.00;;;;;;;;;;5066721;28;20533;-73
2023/04/09 15:23:59;;;;;;;7.93;4.63;;;;;;;;;;5067965;28;22086;-76
2023/04/09 15:26:45;;;;;;;7.22;4.85;;;;;;;;;;5068572;28;20042;-72
2023/04/09 15:29:31;;;;;;;7.18;4.80;;;;;;;;;;5068510;28;20024;-75
2023/04/09 15:32:16;;;;;;;6.03;3.97;;;;;;;;;;5048867;28;20031;-74
2023/04/09 15:35:02;;;;;;;6.32;4.03;;;;;;;;;;5068382;28;20032;-75
2023/04/09 15:37:47;;;;;;;8.00;4.65;;;;;;;;;;5066664;28;20059;-75
2023/04/09 15:40:32;;;;;;;7.00;4.68;;;;;;;;;;5068261;28;20143;-75
2023/04/09 15:43:17;;;;;;;6.55;4.60;;;;;;;;;;5067709;28;20032;-74
2023/04/09 15:46:07;;;;;;;6.07;4.07;;;;;;;;;;5067322;28;20062;-74
2023/04/09 15:48:52;;;;;;;6.82;3.97;;;;;;;;;;5051220;28;20058;-76
2023/04/09 15:51:38;;;;;;;7.00;4.70;;;;;;;;;;5054273;28;20028;-77
2023/04/09 15:54:23;;;;;;;6.75;4.57;;;;;;;;;;5062694;28;20041;-76
2023/04/09 15:57:08;;;;;;;6.82;4.35;;;;;;;;;;5057856;28;20078;-77
2023/04/09 15:59:53;;;;;;;8.07;4.70;;;;;;;;;;5067430;28;20032;-77
2023/04/09 16:02:39;;;;;;;5.85;4.15;;;;;;;;;;5061623;28;20036;-74
2023/04/09 16:05:25;;;;;;;6.25;4.22;;;;;;;;;;5061373;28;20464;-73
2023/04/09 16:08:10;;;;;;;6.20;4.35;;;;;;;;;;5045505;28;20056;-72
2023/04/09 16:10:55;;;;;;;5.72;3.90;;;;;;;;;;5059001;28;20700;-75
2023/04/09 16:13:41;;;;;;;10.13;5.53;;;;;;;;;;5067852;28;20025;-72
2023/04/09 16:16:26;;;;;;;5.97;4.28;;;;;;;;;;5057203;28;20025;-74
2023/04/09 16:19:12;;;;;;;7.57;5.05;;;;;;;;;;5067805;28;20020;-74
2023/04/09 16:21:57;;;;;;;6.65;4.65;;;;;;;;;;5053469;28;20056;-73
2023/04/09 16:24:43;;;;;;;6.63;4.63;;;;;;;;;;5062593;28;20047;-77
2023/04/09 16:27:28;;;;;;;7.00;4.53;;;;;;;;;;5065079;28;20195;-76
2023/04/09 16:30:13;;;;;;;7.75;4.93;;;;;;;;;;5067495;28;20041;-76